createdAt,value
2022-11-17T00:01:51.773Z,97356.62
2022-11-17T00:04:18.755Z,97358.44
2022-11-17T00:06:45.497Z,97357.29
2022-11-17T00:09:21.168Z,97358.23
2022-11-17T00:12:04.421Z,97359.71
2022-11-17T00:14:32.797Z,97362.00
2022-11-17T00:17:00.938Z,97363.91
2022-11-17T00:19:43.241Z,97364.97
2022-11-17T00:22:10.075Z,97368.33
2022-11-17T00:24:36.791Z,97364.54
2022-11-17T00:27:03.674Z,97362.66
2022-11-17T00:29:30.744Z,97359.23
2022-11-17T00:32:13.291Z,97356.43
2022-11-17T00:34:40.445Z,97352.64
2022-11-17T00:37:08.622Z,97343.84
2022-11-17T00:39:35.485Z,97341.59
2022-11-17T00:42:02.750Z,97338.05
2022-11-17T00:44:30.468Z,97339.27
2022-11-17T00:46:57.557Z,97344.12
2022-11-17T00:49:25.574Z,97351.38
2022-11-17T00:51:53.513Z,97354.98
2022-11-17T00:54:20.420Z,97356.59
2022-11-17T00:56:47.741Z,97356.88
2022-11-17T00:59:14.887Z,97361.02
2022-11-17T01:01:42.764Z,97358.52
2022-11-17T01:04:12.105Z,97361.45
2022-11-17T01:06:43.549Z,97362.58
2022-11-17T01:09:12.699Z,97357.63
2022-11-17T01:11:39.930Z,97358.70
2022-11-17T01:14:06.722Z,97353.56
2022-11-17T01:16:33.704Z,97343.98
2022-11-17T01:19:02.325Z,97340.83
2022-11-17T01:21:30.830Z,97336.86
2022-11-17T01:23:59.767Z,97337.80
2022-11-17T01:26:29.638Z,97335.42
2022-11-17T01:28:57.179Z,97337.09
2022-11-17T01:31:27.810Z,97334.98
2022-11-17T01:33:55.228Z,97338.67
2022-11-17T01:36:26.571Z,97340.11
2022-11-17T01:38:53.601Z,97344.64
2022-11-17T01:41:23.973Z,97344.67
2022-11-17T01:43:54.830Z,97347.00
2022-11-17T01:46:22.607Z,97342.54
2022-11-17T01:48:51.414Z,97343.44
2022-11-17T01:51:19.010Z,97342.85
2022-11-17T01:53:50.351Z,97336.45
2022-11-17T01:56:23.816Z,97333.06
2022-11-17T01:58:57.397Z,97330.51
2022-11-17T02:01:24.619Z,97327.40
2022-11-17T02:03:51.770Z,97327.86
2022-11-17T02:06:31.361Z,97326.35
2022-11-17T02:08:58.219Z,97320.72
2022-11-17T02:11:26.255Z,97314.20
2022-11-17T02:13:55.933Z,97312.50
2022-11-17T02:16:22.673Z,97319.95
2022-11-17T02:18:49.555Z,97325.06
2022-11-17T02:21:17.399Z,97325.93
2022-11-17T02:23:59.310Z,97327.53
2022-11-17T02:26:42.394Z,97328.66
2022-11-17T02:29:34.295Z,97322.98
2022-11-17T02:32:16.546Z,97330.14
2022-11-17T02:34:50.503Z,97332.86
2022-11-17T02:37:23.787Z,97328.00
2022-11-17T02:40:01.514Z,97325.23
2022-11-17T02:42:56.035Z,97326.30
2022-11-17T02:45:29.503Z,97322.26
2022-11-17T02:47:59.985Z,97332.50
2022-11-17T02:50:29.793Z,97334.66
2022-11-17T02:52:56.919Z,97332.02
2022-11-17T02:55:23.699Z,97331.95
2022-11-17T02:57:50.525Z,97330.54
2022-11-17T03:00:19.538Z,97333.05
2022-11-17T03:02:47.432Z,97331.98
2022-11-17T03:05:44.718Z,97330.71
2022-11-17T03:08:42.728Z,97336.71
2022-11-17T03:11:11.114Z,97336.69
2022-11-17T03:13:42.169Z,97340.36
2022-11-17T03:16:31.959Z,97342.64
2022-11-17T03:19:09.523Z,97338.66
2022-11-17T03:21:47.337Z,97336.02
2022-11-17T03:24:23.935Z,97332.31
2022-11-17T03:26:56.934Z,97329.68
2022-11-17T03:29:27.855Z,97322.99
2022-11-17T03:32:00.590Z,97323.29
2022-11-17T03:34:32.177Z,97322.29
2022-11-17T03:37:03.795Z,97326.55
2022-11-17T03:39:34.209Z,97326.14
2022-11-17T03:42:19.192Z,97326.40
2022-11-17T03:44:51.043Z,97322.30
2022-11-17T03:47:21.046Z,97322.85
2022-11-17T03:49:57.614Z,97327.17
2022-11-17T03:52:25.522Z,97325.85
2022-11-17T03:54:53.261Z,97329.30
2022-11-17T03:57:32.123Z,97326.45
2022-11-17T04:00:08.652Z,97325.40
2022-11-17T04:02:45.061Z,97327.90
2022-11-17T04:05:14.927Z,97324.14
2022-11-17T04:07:44.622Z,97320.80
2022-11-17T04:10:15.589Z,97315.23
2022-11-17T04:12:58.156Z,97315.26
2022-11-17T04:15:41.487Z,97322.52
2022-11-17T04:18:08.164Z,97322.88
2022-11-17T04:20:36.097Z,97324.86
2022-11-17T04:23:07.524Z,97322.27
2022-11-17T04:25:52.379Z,97324.34
2022-11-17T04:28:35.513Z,97328.16
2022-11-17T04:31:04.156Z,97323.22
2022-11-17T04:33:31.227Z,97323.70
2022-11-17T04:35:58.226Z,97327.33
2022-11-17T04:38:24.983Z,97331.43
2022-11-17T04:41:07.169Z,97331.84
2022-11-17T04:43:34.361Z,97329.85
2022-11-17T04:46:01.563Z,97330.34
2022-11-17T04:48:29.018Z,97328.17
2022-11-17T04:50:56.986Z,97327.76
2022-11-17T04:53:24.718Z,97330.00
2022-11-17T04:55:51.498Z,97332.13
2022-11-17T04:58:18.176Z,97332.62
2022-11-17T05:00:45.774Z,97333.19
2022-11-17T05:03:12.785Z,97337.92
2022-11-17T05:05:39.755Z,97336.30
2022-11-17T05:08:06.531Z,97338.98
2022-11-17T05:10:49.309Z,97341.61
2022-11-17T05:13:25.329Z,97340.95
2022-11-17T05:16:10.080Z,97343.46
2022-11-17T05:18:37.118Z,97347.42
2022-11-17T05:21:05.362Z,97345.67
2022-11-17T05:23:47.871Z,97342.30
2022-11-17T05:26:14.619Z,97343.07
2022-11-17T05:28:41.551Z,97341.97
2022-11-17T05:31:08.480Z,97338.48
2022-11-17T05:33:37.957Z,97344.35
2022-11-17T05:36:05.586Z,97348.02
2022-11-17T05:38:33.107Z,97347.30
2022-11-17T05:41:00.302Z,97349.96
2022-11-17T05:43:27.573Z,97350.75
2022-11-17T05:45:54.654Z,97350.60
2022-11-17T05:48:21.416Z,97361.88
2022-11-17T05:50:48.262Z,97366.33
2022-11-17T05:53:15.206Z,97370.17
2022-11-17T05:55:42.119Z,97373.80
2022-11-17T05:58:17.107Z,97374.77
2022-11-17T06:00:44.528Z,97373.66
2022-11-17T06:03:18.310Z,97372.58
2022-11-17T06:05:45.043Z,97372.91
2022-11-17T06:08:12.293Z,97377.72
2022-11-17T06:10:39.119Z,97379.01
2022-11-17T06:13:05.942Z,97384.13
2022-11-17T06:15:34.401Z,97387.97
2022-11-17T06:18:07.323Z,97389.26
2022-11-17T06:20:39.490Z,97393.49
2022-11-17T06:23:08.121Z,97389.91
2022-11-17T06:25:37.238Z,97387.43
2022-11-17T06:28:08.492Z,97390.30
2022-11-17T06:30:37.250Z,97395.42
2022-11-17T06:33:05.015Z,97395.20
2022-11-17T06:35:34.683Z,97395.42
2022-11-17T06:38:02.062Z,97399.00
2022-11-17T06:40:29.473Z,97400.53
2022-11-17T06:43:11.905Z,97401.49
2022-11-17T06:45:41.260Z,97403.27
2022-11-17T06:48:09.750Z,97407.61
2022-11-17T06:50:37.350Z,97406.09
2022-11-17T06:53:07.165Z,97406.00
2022-11-17T06:55:34.714Z,97404.39
2022-11-17T06:58:04.981Z,97402.70
2022-11-17T07:00:31.879Z,97401.95
2022-11-17T07:03:00.855Z,97398.92
2022-11-17T07:05:27.954Z,97401.64
2022-11-17T07:07:58.557Z,97406.42
2022-11-17T07:10:26.145Z,97409.09
2022-11-17T07:12:53.147Z,97409.48
2022-11-17T07:15:20.427Z,97411.42
2022-11-17T07:17:47.882Z,97410.98
2022-11-17T07:20:15.470Z,97412.10
2022-11-17T07:22:42.251Z,97414.08
2022-11-17T07:25:09.700Z,97412.79
2022-11-17T07:27:37.021Z,97411.11
2022-11-17T07:30:05.732Z,97409.02
2022-11-17T07:32:34.191Z,97412.35
2022-11-17T07:35:02.175Z,97420.85
2022-11-17T07:37:33.534Z,97426.79
2022-11-17T07:40:00.768Z,97428.30
2022-11-17T07:42:27.573Z,97427.79
2022-11-17T07:44:54.618Z,97427.41
2022-11-17T07:47:21.333Z,97421.98
2022-11-17T07:49:48.045Z,97422.02
2022-11-17T07:52:14.760Z,97417.73
2022-11-17T07:54:41.474Z,97415.45
2022-11-17T07:57:08.263Z,97414.04
2022-11-17T07:59:34.964Z,97412.13
2022-11-17T08:02:01.886Z,97409.94
2022-11-17T08:04:28.667Z,97416.80
2022-11-17T08:06:55.449Z,97418.23
2022-11-17T08:09:22.284Z,97422.67
2022-11-17T08:11:49.515Z,97427.55
2022-11-17T08:14:16.277Z,97427.42
2022-11-17T08:16:43.091Z,97425.51
2022-11-17T08:19:12.014Z,97418.09
2022-11-17T08:21:38.863Z,97418.58
2022-11-17T08:24:05.807Z,97420.23
2022-11-17T08:26:32.892Z,97421.47
2022-11-17T08:29:01.940Z,97422.46
2022-11-17T08:31:28.749Z,97420.52
2022-11-17T08:33:55.695Z,97419.91
2022-11-17T08:36:22.517Z,97418.91
2022-11-17T08:38:49.356Z,97416.67
2022-11-17T08:41:16.088Z,97417.00
2022-11-17T08:43:42.819Z,97420.30
2022-11-17T08:46:13.743Z,97428.77
2022-11-17T08:48:40.988Z,97431.50
2022-11-17T08:51:09.113Z,97430.34
2022-11-17T08:53:36.124Z,97428.47
2022-11-17T08:56:08.689Z,97424.56
2022-11-17T08:58:44.156Z,97428.30
2022-11-17T09:01:12.563Z,97431.38
2022-11-17T09:03:44.204Z,97441.89
2022-11-17T09:06:12.534Z,97446.13
2022-11-17T09:08:45.683Z,97452.27
2022-11-17T09:11:14.500Z,97453.23
2022-11-17T09:13:42.319Z,97454.48
2022-11-17T09:16:11.382Z,97459.66
2022-11-17T09:18:39.715Z,97459.20
2022-11-17T09:21:10.873Z,97457.52
2022-11-17T09:23:38.316Z,97452.16
2022-11-17T09:26:07.457Z,97450.52
2022-11-17T09:28:34.809Z,97452.59
2022-11-17T09:31:10.932Z,97446.96
2022-11-17T09:33:38.360Z,97447.29
2022-11-17T09:36:07.356Z,97442.41
2022-11-17T09:38:34.802Z,97442.98
2022-11-17T09:41:10.600Z,97443.11
2022-11-17T09:43:39.635Z,97447.27
2022-11-17T09:46:15.325Z,97443.41
2022-11-17T09:48:50.765Z,97444.73
2022-11-17T09:51:22.026Z,97448.13
2022-11-17T09:54:05.981Z,97444.61
2022-11-17T09:56:33.875Z,97450.39
2022-11-17T09:59:05.152Z,97453.55
2022-11-17T10:01:32.384Z,97452.76
2022-11-17T10:04:01.431Z,97452.47
2022-11-17T10:06:31.536Z,97454.23
2022-11-17T10:09:05.855Z,97459.01
2022-11-17T10:11:36.717Z,97458.27
2022-11-17T10:14:20.367Z,97460.17
2022-11-17T10:16:54.056Z,97458.05
2022-11-17T10:19:30.852Z,97460.00
2022-11-17T10:22:02.417Z,97460.00
2022-11-17T10:24:48.162Z,97458.61
2022-11-17T10:27:19.455Z,97459.73
2022-11-17T10:30:08.065Z,97458.30
2022-11-17T10:32:38.213Z,97458.65
2022-11-17T10:35:16.203Z,97458.34
2022-11-17T10:37:52.301Z,97461.80
2022-11-17T10:40:25.686Z,97459.30
2022-11-17T10:42:58.341Z,97452.55
2022-11-17T10:45:25.417Z,97453.41
2022-11-17T10:47:52.281Z,97457.52
2022-11-17T10:50:22.473Z,97459.18
2022-11-17T10:52:51.962Z,97462.67
2022-11-17T10:55:28.346Z,97462.42
2022-11-17T10:57:59.967Z,97460.19
2022-11-17T11:00:30.704Z,97455.33
2022-11-17T11:03:16.869Z,97449.77
2022-11-17T11:05:59.206Z,97458.54
2022-11-17T11:08:35.973Z,97463.41
2022-11-17T11:11:11.657Z,97466.98
2022-11-17T11:13:45.891Z,97467.77
2022-11-17T11:16:12.591Z,97463.48
2022-11-17T11:18:39.469Z,97461.84
2022-11-17T11:21:17.089Z,97463.42
2022-11-17T11:24:03.454Z,97460.48
2022-11-17T11:26:45.720Z,97456.95
2022-11-17T11:29:22.690Z,97450.13
2022-11-17T11:32:01.710Z,97449.63
2022-11-17T11:34:43.899Z,97447.64
2022-11-17T11:37:13.715Z,97443.84
2022-11-17T11:39:47.909Z,97437.73
2022-11-17T11:42:22.136Z,97434.58
2022-11-17T11:45:13.262Z,97433.55
2022-11-17T11:48:11.176Z,97433.17
2022-11-17T11:50:43.964Z,97433.89
2022-11-17T11:53:19.149Z,97432.71
2022-11-17T11:55:50.762Z,97437.45
2022-11-17T11:58:21.939Z,97437.21
2022-11-17T12:00:52.203Z,97444.21
2022-11-17T12:03:36.773Z,97447.75
2022-11-17T12:06:30.076Z,97450.64
2022-11-17T12:09:15.500Z,97447.59
2022-11-17T12:11:59.147Z,97446.48
2022-11-17T12:14:28.214Z,97443.10
2022-11-17T12:17:07.045Z,97447.29
2022-11-17T12:19:50.341Z,97454.33
2022-11-17T12:22:34.432Z,97458.38
2022-11-17T12:25:15.145Z,97455.06
2022-11-17T12:27:47.025Z,97470.84
2022-11-17T12:30:33.825Z,97486.10
2022-11-17T12:33:04.801Z,97482.08
2022-11-17T12:35:34.465Z,97484.89
2022-11-17T12:38:17.287Z,97477.64
2022-11-17T12:40:49.570Z,97484.45
2022-11-17T12:43:16.545Z,97483.84
2022-11-17T12:46:03.792Z,97483.17
2022-11-17T12:48:35.293Z,97486.56
2022-11-17T12:51:27.247Z,97492.09
2022-11-17T12:54:21.050Z,97501.73
2022-11-17T12:57:09.612Z,97505.27
2022-11-17T12:59:52.303Z,97508.11
2022-11-17T13:02:31.516Z,97511.48
2022-11-17T13:05:05.219Z,97517.38
2022-11-17T13:07:32.080Z,97510.29
2022-11-17T13:10:00.036Z,97507.81
2022-11-17T13:12:32.145Z,97502.23
2022-11-17T13:15:04.582Z,97501.80
2022-11-17T13:17:42.529Z,97489.63
2022-11-17T13:20:27.014Z,97486.80
2022-11-17T13:23:01.921Z,97478.92
2022-11-17T13:25:28.727Z,97481.69
2022-11-17T13:28:01.223Z,97482.11
2022-11-17T13:30:32.791Z,97483.06
2022-11-17T13:33:02.284Z,97485.33
2022-11-17T13:35:32.466Z,97487.79
2022-11-17T13:38:02.537Z,97488.19
2022-11-17T13:40:30.949Z,97486.75
2022-11-17T13:42:58.894Z,97486.62
2022-11-17T13:45:25.863Z,97484.85
2022-11-17T13:47:53.886Z,97487.28
2022-11-17T13:50:21.927Z,97489.16
2022-11-17T13:52:53.506Z,97493.38
2022-11-17T13:55:21.762Z,97493.38
2022-11-17T13:58:00.092Z,97489.33
2022-11-17T14:00:28.117Z,97488.72
2022-11-17T14:03:01.099Z,97476.92
2022-11-17T14:05:30.222Z,97475.95
2022-11-17T14:07:59.162Z,97470.40
2022-11-17T14:10:27.733Z,97474.02
2022-11-17T14:13:14.518Z,97479.99
2022-11-17T14:15:42.684Z,97484.22
2022-11-17T14:18:28.062Z,97481.67
2022-11-17T14:21:11.982Z,97478.67
2022-11-17T14:23:38.932Z,97477.78
2022-11-17T14:26:06.247Z,97482.04
2022-11-17T14:28:33.199Z,97482.66
2022-11-17T14:30:59.981Z,97479.80
2022-11-17T14:33:26.830Z,97479.14
2022-11-17T14:35:56.186Z,97485.94
2022-11-17T14:38:23.491Z,97491.80
2022-11-17T14:40:52.391Z,97493.25
2022-11-17T14:43:20.946Z,97489.98
2022-11-17T14:45:49.220Z,97482.71
2022-11-17T14:48:19.235Z,97481.66
2022-11-17T14:50:47.683Z,97475.83
2022-11-17T14:53:14.584Z,97474.09
2022-11-17T14:55:41.263Z,97470.69
2022-11-17T14:58:10.159Z,97469.09
2022-11-17T15:00:37.696Z,97467.10
2022-11-17T15:03:04.485Z,97460.77
2022-11-17T15:05:31.304Z,97458.10
2022-11-17T15:07:58.098Z,97456.29
2022-11-17T15:10:24.866Z,97458.49
2022-11-17T15:12:51.552Z,97454.19
2022-11-17T15:15:18.462Z,97449.82
2022-11-17T15:17:45.128Z,97445.04
2022-11-17T15:20:12.133Z,97445.96
2022-11-17T15:22:38.858Z,97447.51
2022-11-17T15:25:06.276Z,97449.58
2022-11-17T15:27:32.973Z,97451.62
2022-11-17T15:29:59.637Z,97448.66
2022-11-17T15:32:26.480Z,97443.21
2022-11-17T15:34:53.092Z,97438.35
2022-11-17T15:37:19.798Z,97431.10
2022-11-17T15:39:47.214Z,97428.70
2022-11-17T15:42:14.008Z,97436.01
2022-11-17T15:44:40.859Z,97431.73
2022-11-17T15:47:07.559Z,97426.16
2022-11-17T15:49:34.247Z,97419.11
2022-11-17T15:52:01.136Z,97415.89
2022-11-17T15:54:27.755Z,97415.37
2022-11-17T15:56:54.421Z,97407.31
2022-11-17T15:59:21.208Z,97404.19
2022-11-17T16:01:48.177Z,97400.34
2022-11-17T16:04:16.134Z,97398.99
2022-11-17T16:06:45.185Z,97398.75
2022-11-17T16:09:12.932Z,97406.37
2022-11-17T16:11:40.315Z,97416.16
2022-11-17T16:14:07.358Z,97413.20
2022-11-17T16:16:36.575Z,97416.41
2022-11-17T16:19:03.810Z,97413.30
2022-11-17T16:21:30.662Z,97418.28
2022-11-17T16:23:59.549Z,97421.34
2022-11-17T16:26:28.472Z,97424.34
2022-11-17T16:28:58.003Z,97423.13
2022-11-17T16:31:41.231Z,97425.29
2022-11-17T16:34:13.541Z,97427.63
2022-11-17T16:36:42.079Z,97430.92
2022-11-17T16:39:11.867Z,97428.14
2022-11-17T16:41:41.077Z,97427.45
2022-11-17T16:44:11.981Z,97429.17
2022-11-17T16:46:41.148Z,97431.34
2022-11-17T16:49:10.698Z,97437.87
2022-11-17T16:51:37.491Z,97448.66
2022-11-17T16:54:06.347Z,97451.33
2022-11-17T16:56:34.382Z,97448.56
2022-11-17T16:59:01.496Z,97455.77
2022-11-17T17:01:30.627Z,97457.08
2022-11-17T17:03:59.442Z,97458.60
2022-11-17T17:06:26.787Z,97457.69
2022-11-17T17:08:55.539Z,97452.29
2022-11-17T17:11:22.384Z,97455.97
2022-11-17T17:13:49.223Z,97458.70
2022-11-17T17:16:18.137Z,97456.76
2022-11-17T17:18:44.842Z,97453.80
2022-11-17T17:21:15.014Z,97457.84
2022-11-17T17:23:41.755Z,97454.59
2022-11-17T17:26:14.067Z,97454.29
2022-11-17T17:28:41.193Z,97455.70
2022-11-17T17:31:08.487Z,97456.95
2022-11-17T17:33:36.468Z,97453.30
2022-11-17T17:36:15.400Z,97443.98
2022-11-17T17:38:42.440Z,97438.36
2022-11-17T17:41:11.999Z,97431.61
2022-11-17T17:43:39.779Z,97433.89
2022-11-17T17:46:15.311Z,97433.22
2022-11-17T17:48:44.528Z,97434.31
2022-11-17T17:51:15.174Z,97428.10
2022-11-17T17:53:42.532Z,97428.05
2022-11-17T17:56:11.781Z,97425.52
2022-11-17T17:58:40.753Z,97423.02
2022-11-17T18:01:12.100Z,97418.77
2022-11-17T18:03:39.985Z,97414.59
2022-11-17T18:06:06.980Z,97412.88
2022-11-17T18:08:35.703Z,97413.81
2022-11-17T18:11:06.186Z,97416.82
2022-11-17T18:13:34.956Z,97419.41
2022-11-17T18:16:05.038Z,97422.59
2022-11-17T18:18:32.999Z,97420.55
2022-11-17T18:21:00.787Z,97420.16
2022-11-17T18:23:29.748Z,97416.05
2022-11-17T18:26:15.557Z,97411.88
2022-11-17T18:28:44.376Z,97409.83
2022-11-17T18:31:11.730Z,97412.96
2022-11-17T18:33:38.491Z,97419.96
2022-11-17T18:36:08.482Z,97421.41
2022-11-17T18:38:36.613Z,97411.11
2022-11-17T18:41:28.902Z,97399.07
2022-11-17T18:43:55.606Z,97384.33
2022-11-17T18:46:26.160Z,97384.70
2022-11-17T18:48:53.161Z,97384.63
2022-11-17T18:51:22.203Z,97376.73
2022-11-17T18:53:50.182Z,97371.47
2022-11-17T18:56:19.839Z,97370.86
2022-11-17T18:58:46.600Z,97375.19
2022-11-17T19:01:17.113Z,97380.67
2022-11-17T19:03:45.948Z,97376.83
2022-11-17T19:06:14.750Z,97376.13
2022-11-17T19:08:41.467Z,97376.05
2022-11-17T19:11:10.014Z,97381.48
2022-11-17T19:13:52.966Z,97384.50
2022-11-17T19:16:23.186Z,97388.70
2022-11-17T19:18:51.926Z,97395.38
2022-11-17T19:21:23.515Z,97401.70
2022-11-17T19:23:52.074Z,97404.59
2022-11-17T19:26:22.398Z,97411.93
2022-11-17T19:28:55.896Z,97412.23
2022-11-17T19:31:23.495Z,97410.10
2022-11-17T19:34:21.067Z,97413.85
2022-11-17T19:36:47.955Z,97416.63
2022-11-17T19:39:15.245Z,97422.09
2022-11-17T19:41:43.768Z,97419.73
2022-11-17T19:44:10.539Z,97422.43
2022-11-17T19:46:37.571Z,97424.97
2022-11-17T19:49:06.027Z,97422.89
2022-11-17T19:51:36.374Z,97420.23
2022-11-17T19:54:06.640Z,97420.39
2022-11-17T19:56:33.665Z,97417.26
2022-11-17T19:59:00.445Z,97421.67
2022-11-17T20:01:29.009Z,97421.05
2022-11-17T20:03:57.618Z,97423.38
2022-11-17T20:06:27.570Z,97414.52
2022-11-17T20:08:56.048Z,97419.35
2022-11-17T20:11:25.373Z,97419.65
2022-11-17T20:13:52.080Z,97414.98
2022-11-17T20:16:27.624Z,97415.73
2022-11-17T20:19:12.443Z,97417.77
2022-11-17T20:21:39.905Z,97422.77
2022-11-17T20:24:06.875Z,97416.58
2022-11-17T20:26:35.657Z,97413.73
2022-11-17T20:29:02.396Z,97412.77
2022-11-17T20:31:32.211Z,97410.68
2022-11-17T20:34:00.760Z,97407.76
2022-11-17T20:36:29.330Z,97404.23
2022-11-17T20:38:58.813Z,97402.59
2022-11-17T20:41:26.023Z,97402.10
2022-11-17T20:43:55.258Z,97400.16
2022-11-17T20:46:23.116Z,97393.83
2022-11-17T20:48:50.743Z,97391.58
2022-11-17T20:51:20.348Z,97392.82
2022-11-17T20:53:47.309Z,97386.80
2022-11-17T20:56:17.141Z,97375.48
2022-11-17T20:58:44.436Z,97370.29
2022-11-17T21:01:14.743Z,97365.86
2022-11-17T21:03:42.297Z,97368.41
2022-11-17T21:06:10.130Z,97363.63
2022-11-17T21:08:40.388Z,97362.59
2022-11-17T21:11:10.480Z,97362.30
2022-11-17T21:13:38.478Z,97357.95
2022-11-17T21:16:10.503Z,97348.48
2022-11-17T21:18:39.155Z,97346.88
2022-11-17T21:21:09.267Z,97343.55
2022-11-17T21:23:37.540Z,97345.95
2022-11-17T21:26:07.019Z,97347.10
2022-11-17T21:28:35.817Z,97346.30
2022-11-17T21:31:10.561Z,97345.23
2022-11-17T21:33:37.742Z,97343.61
2022-11-17T21:36:07.653Z,97346.73
2022-11-17T21:38:34.547Z,97345.25
2022-11-17T21:41:03.112Z,97340.91
2022-11-17T21:43:30.522Z,97332.23
2022-11-17T21:46:07.125Z,97329.31
2022-11-17T21:48:35.358Z,97330.92
2022-11-17T21:51:03.161Z,97328.55
2022-11-17T21:53:30.479Z,97327.70
2022-11-17T21:56:01.404Z,97326.52
2022-11-17T21:58:28.083Z,97323.31
2022-11-17T22:00:54.905Z,97322.44
2022-11-17T22:03:21.925Z,97316.38
2022-11-17T22:05:50.957Z,97313.02
2022-11-17T22:08:18.754Z,97311.27
2022-11-17T22:13:29.727Z,97316.23
2022-11-17T22:15:56.374Z,97315.07
2022-11-17T22:18:23.046Z,97309.93
2022-11-17T22:20:51.779Z,97306.39
2022-11-17T22:23:18.618Z,97300.75
2022-11-17T22:25:54.859Z,97303.69
2022-11-17T22:28:22.023Z,97300.39
2022-11-17T22:30:48.815Z,97298.45
2022-11-17T22:33:16.080Z,97299.27
2022-11-17T22:35:44.303Z,97299.38
2022-11-17T22:38:12.480Z,97298.36
2022-11-17T22:40:41.396Z,97297.16
2022-11-17T22:43:14.618Z,97297.85
2022-11-17T22:45:42.503Z,97299.65
2022-11-17T22:48:09.239Z,97297.77
2022-11-17T22:50:36.375Z,97298.33
2022-11-17T22:53:03.451Z,97302.12
2022-11-17T22:55:30.246Z,97305.91
2022-11-17T22:57:57.098Z,97305.32
2022-11-17T23:00:24.087Z,97298.64
2022-11-17T23:02:50.847Z,97294.37
2022-11-17T23:05:17.970Z,97282.88
2022-11-17T23:07:44.729Z,97283.88
2022-11-17T23:10:12.046Z,97279.60
2022-11-17T23:12:39.716Z,97271.38
2022-11-17T23:15:07.641Z,97268.39
2022-11-17T23:17:34.973Z,97265.38
2022-11-17T23:20:01.952Z,97264.08
2022-11-17T23:22:28.664Z,97267.38
2022-11-17T23:24:55.481Z,97268.02
2022-11-17T23:27:22.516Z,97262.20
2022-11-17T23:29:49.241Z,97261.69
2022-11-17T23:32:15.936Z,97259.04
2022-11-17T23:34:42.788Z,97252.88
2022-11-17T23:37:09.579Z,97254.10
2022-11-17T23:39:36.308Z,97253.20
2022-11-17T23:42:03.096Z,97255.25
2022-11-17T23:44:30.377Z,97258.95
2022-11-17T23:46:57.083Z,97263.21
2022-11-17T23:49:23.792Z,97266.56
2022-11-17T23:51:50.582Z,97265.21
2022-11-17T23:54:17.383Z,97263.58
2022-11-17T23:56:44.043Z,97265.46
2022-11-17T23:59:10.762Z,97263.66
